Time;durP1;ratioP1;P1;durP2;ratioP2;P2;SDS_P1;SDS_P2;PMS_P1;PMS_P2;Temp;Humidity;BMP_temperature;BMP_pressure;BME280_temperature;BME280_humidity;BME280_pressure;Samples;Min_cycle;Max_cycle;Signal;HPM_P1;HPM_P2
2022/09/13 00:00:52;;;;;;;0.98;0.20;;;17.90;99.90;;;;;;5074990;28;20077;-78
2022/09/13 00:03:18;;;;;;;0.10;0.00;;;17.80;99.90;;;;;;5058060;28;20159;-79
2022/09/13 00:05:43;;;;;;;0.10;0.00;;;17.80;99.90;;;;;;5074342;28;20057;-79
2022/09/13 00:08:10;;;;;;;0.00;0.00;;;17.70;99.90;;;;;;5075068;28;20468;-79
2022/09/13 00:10:37;;;;;;;0.10;0.10;;;17.70;99.90;;;;;;5074953;28;20048;-79
2022/09/13 00:13:05;;;;;;;0.00;0.00;;;17.60;99.90;;;;;;5074939;28;20134;-78
2022/09/13 00:15:31;;;;;;;0.03;0.00;;;17.60;99.90;;;;;;5074823;28;20041;-78
2022/09/13 00:17:56;;;;;;;0.05;0.05;;;17.50;99.90;;;;;;5074828;28;20071;-78
2022/09/13 00:20:22;;;;;;;0.00;0.00;;;17.40;99.90;;;;;;5057994;28;20040;-78
2022/09/13 00:22:48;;;;;;;0.08;0.08;;;17.30;99.90;;;;;;5073850;28;20094;-78
2022/09/13 00:25:14;;;;;;;0.10;0.05;;;17.30;99.90;;;;;;5058245;28;20236;-79
2022/09/13 00:27:39;;;;;;;0.00;0.00;;;17.20;99.90;;;;;;5074876;28;20084;-79
2022/09/13 00:30:06;;;;;;;0.13;0.10;;;17.20;99.90;;;;;;5074475;28;20040;-79
2022/09/13 00:32:35;;;;;;;0.10;0.10;;;17.20;99.90;;;;;;5057854;28;20051;-78
2022/09/13 00:35:04;;;;;;;0.10;0.10;;;17.10;99.90;;;;;;5074627;28;20048;-79
2022/09/13 00:37:32;;;;;;;1.02;0.30;;;17.10;99.90;;;;;;5057764;28;20052;-79
2022/09/13 00:39:58;;;;;;;0.00;0.00;;;17.10;99.90;;;;;;5074190;28;20080;-78
2022/09/13 00:42:25;;;;;;;0.10;0.10;;;17.10;99.90;;;;;;5057485;28;20067;-78
2022/09/13 00:45:05;;;;;;;0.00;0.00;;;17.10;99.90;;;;;;5057994;28;20089;-78
2022/09/13 00:48:07;;;;;;;0.22;0.22;;;17.10;99.90;;;;;;5057791;28;20457;-78
2022/09/13 00:50:38;;;;;;;0.20;0.20;;;17.10;99.90;;;;;;5036459;28;20135;-78
2022/09/13 00:53:08;;;;;;;0.32;0.15;;;17.10;99.90;;;;;;5036809;28;20444;-78
2022/09/13 00:55:45;;;;;;;0.00;0.00;;;17.00;99.90;;;;;;5036103;28;20136;-79
2022/09/13 00:58:19;;;;;;;0.00;0.00;;;17.10;99.90;;;;;;5019560;28;20548;-79
2022/09/13 01:00:46;;;;;;;0.00;0.00;;;17.20;99.90;;;;;;5019952;28;20061;-79
2022/09/13 01:03:14;;;;;;;0.00;0.00;;;17.10;99.90;;;;;;5036493;28;20114;-79
2022/09/13 01:05:47;;;;;;;0.00;0.00;;;17.20;99.90;;;;;;5019778;28;20056;-79
2022/09/13 01:08:21;;;;;;;0.20;0.00;;;17.10;99.90;;;;;;5036836;28;20052;-79
2022/09/13 01:10:49;;;;;;;0.00;0.00;;;17.20;99.90;;;;;;5019588;28;20532;-79
2022/09/13 01:13:42;;;;;;;0.00;0.00;;;17.10;99.90;;;;;;5019827;28;20424;-79
2022/09/13 01:16:07;;;;;;;0.00;0.00;;;17.20;99.90;;;;;;5033428;28;20053;-79
2022/09/13 01:18:33;;;;;;;0.00;0.00;;;17.20;99.90;;;;;;5019075;28;20551;-79
2022/09/13 01:21:42;;;;;;;0.00;0.00;;;17.20;99.90;;;;;;5036214;28;20041;-79
2022/09/13 01:24:13;;;;;;;0.00;0.00;;;17.20;99.90;;;;;;5047061;28;20069;-79
2022/09/13 01:26:44;;;;;;;0.00;0.00;;;17.20;99.90;;;;;;5057512;28;20086;-79
2022/09/13 01:29:28;;;;;;;0.00;0.00;;;17.20;99.90;;;;;;5073540;28;20076;-79
2022/09/13 01:32:18;;;;;;;0.00;0.00;;;17.20;99.90;;;;;;5073712;28;20044;-79
2022/09/13 01:34:49;;;;;;;0.00;0.00;;;17.20;99.90;;;;;;5056599;28;20047;-79
2022/09/13 01:37:50;;;;;;;0.00;0.00;;;17.10;99.90;;;;;;5073987;28;20044;-79
2022/09/13 01:40:28;;;;;;;0.00;0.00;;;17.20;99.90;;;;;;5072988;28;20071;-79
2022/09/13 01:43:25;;;;;;;0.00;0.00;;;17.20;99.90;;;;;;5073245;28;20043;-79
2022/09/13 01:46:37;;;;;;;0.45;0.30;;;17.20;99.90;;;;;;5056683;28;20052;-79
2022/09/13 01:49:17;;;;;;;0.00;0.00;;;17.10;99.90;;;;;;5073023;28;20048;-79
2022/09/13 01:51:47;;;;;;;0.00;0.00;;;17.10;99.90;;;;;;5073363;28;20468;-79
2022/09/13 01:54:15;;;;;;;0.00;0.00;;;17.10;99.90;;;;;;5056172;28;20050;-79
2022/09/13 01:57:06;;;;;;;0.25;0.25;;;17.10;99.90;;;;;;5056602;28;20056;-79
2022/09/13 01:59:31;;;;;;;0.00;0.00;;;17.10;99.90;;;;;;5055674;28;20169;-79
2022/09/13 02:02:12;;;;;;;0.00;0.00;;;17.10;99.90;;;;;;5073008;28;20058;-79
2022/09/13 02:04:43;;;;;;;0.00;0.00;;;17.10;99.90;;;;;;5073045;28;20083;-79
2022/09/13 02:07:16;;;;;;;0.00;0.00;;;17.10;99.90;;;;;;5056408;28;20048;-79
2022/09/13 02:09:48;;;;;;;0.00;0.00;;;17.10;99.90;;;;;;5071992;28;20060;-79
2022/09/13 02:12:21;;;;;;;3.00;0.03;;;17.10;99.90;;;;;;5055890;28;20052;-79
2022/09/13 02:15:06;;;;;;;0.00;0.00;;;17.20;99.90;;;;;;5056216;28;20041;-79
2022/09/13 02:17:37;;;;;;;0.00;0.00;;;17.20;99.90;;;;;;5056011;28;20135;-79
2022/09/13 02:20:14;;;;;;;2.38;0.22;;;17.20;99.90;;;;;;5072633;28;20087;-79
2022/09/13 02:22:45;;;;;;;0.08;0.08;;;17.20;99.90;;;;;;5055850;28;20431;-79
2022/09/13 02:25:17;;;;;;;0.00;0.00;;;17.20;99.90;;;;;;5055709;28;20057;-79
2022/09/13 02:27:47;;;;;;;0.00;0.00;;;17.20;99.90;;;;;;5072470;28;20534;-79
2022/09/13 02:30:14;;;;;;;0.00;0.00;;;17.20;99.90;;;;;;5072442;28;20052;-79
2022/09/13 02:32:48;;;;;;;0.00;0.00;;;17.20;99.90;;;;;;5072463;28;20090;-79
2022/09/13 02:35:20;;;;;;;0.10;0.10;;;17.20;99.90;;;;;;5072957;28;20049;-79
2022/09/13 02:37:52;;;;;;;0.00;0.00;;;17.20;99.90;;;;;;5055520;28;20067;-79
2022/09/13 02:40:24;;;;;;;0.00;0.00;;;17.20;99.90;;;;;;5055870;28;20435;-79
2022/09/13 02:43:07;;;;;;;0.60;0.55;;;17.20;99.90;;;;;;5072676;28;20052;-79
2022/09/13 02:46:06;;;;;;;0.00;0.00;;;17.20;99.90;;;;;;5057757;28;20044;-79
2022/09/13 02:48:50;;;;;;;0.00;0.00;;;17.10;99.90;;;;;;5038630;28;20106;-79
2022/09/13 02:51:16;;;;;;;0.57;0.20;;;17.10;99.90;;;;;;5038870;28;20045;-79
2022/09/13 02:54:03;;;;;;;0.00;0.00;;;17.10;99.90;;;;;;5022235;28;20053;-79
2022/09/13 02:56:42;;;;;;;0.08;0.00;;;17.20;99.90;;;;;;5022197;28;20175;-79
2022/09/13 02:59:19;;;;;;;0.00;0.00;;;17.10;99.90;;;;;;5038386;28;20084;-79
2022/09/13 03:01:58;;;;;;;0.00;0.00;;;17.10;99.90;;;;;;5022122;28;20060;-79
2022/09/13 03:04:24;;;;;;;0.00;0.00;;;17.20;99.90;;;;;;5022073;28;20049;-79
2022/09/13 03:06:50;;;;;;;0.00;0.00;;;17.20;99.90;;;;;;5038433;28;20080;-79
2022/09/13 03:09:16;;;;;;;0.15;0.15;;;17.10;99.90;;;;;;5021722;28;20471;-79
2022/09/13 03:12:00;;;;;;;0.10;0.03;;;17.10;99.90;;;;;;5021147;28;20057;-79
2022/09/13 03:15:14;;;;;;;0.00;0.00;;;17.10;99.90;;;;;;5038428;28;20047;-80
2022/09/13 03:18:05;;;;;;;0.00;0.00;;;17.10;99.90;;;;;;4979296;28;20289;-79
2022/09/13 03:21:06;;;;;;;0.25;0.15;;;17.10;99.90;;;;;;4995467;28;20046;-79
2022/09/13 03:23:52;;;;;;;0.20;0.00;;;17.10;99.90;;;;;;4979288;28;20051;-79
2022/09/13 03:26:18;;;;;;;0.00;0.00;;;17.10;99.90;;;;;;5014712;28;20092;-79
2022/09/13 03:28:55;;;;;;;1.00;0.30;;;17.10;99.90;;;;;;5002068;28;20049;-79
2022/09/13 03:31:39;;;;;;;0.65;0.00;;;17.10;99.90;;;;;;5001862;28;20049;-79
2022/09/13 03:34:26;;;;;;;0.00;0.00;;;17.10;99.90;;;;;;5001494;28;20060;-79
2022/09/13 03:37:13;;;;;;;0.08;0.08;;;17.10;99.90;;;;;;5001968;28;20291;-79
2022/09/13 03:39:47;;;;;;;0.10;0.10;;;17.10;99.90;;;;;;5017741;28;20440;-79
2022/09/13 03:42:36;;;;;;;0.10;0.10;;;17.10;99.90;;;;;;5001638;28;20064;-79
2022/09/13 03:45:04;;;;;;;0.00;0.00;;;17.10;99.90;;;;;;5001620;28;20049;-79
2022/09/13 03:47:35;;;;;;;0.00;0.00;;;17.10;99.90;;;;;;5018104;28;20057;-79
2022/09/13 03:50:02;;;;;;;0.00;0.00;;;17.10;99.90;;;;;;5017571;28;20401;-79
2022/09/13 03:52:28;;;;;;;0.13;0.13;;;17.10;99.90;;;;;;5017779;28;20400;-79
2022/09/13 03:54:54;;;;;;;0.10;0.10;;;17.10;99.90;;;;;;5048828;28;20057;-79
2022/09/13 03:57:21;;;;;;;0.77;0.17;;;17.10;99.90;;;;;;5058431;28;20377;-79
2022/09/13 03:59:49;;;;;;;0.20;0.15;;;17.10;99.90;;;;;;5074960;28;20454;-79
2022/09/13 04:02:16;;;;;;;0.13;0.13;;;17.10;99.90;;;;;;5075037;28;20051;-79
2022/09/13 04:04:43;;;;;;;0.00;0.00;;;17.10;99.90;;;;;;5058416;28;20053;-79
2022/09/13 04:07:12;;;;;;;0.00;0.00;;;17.10;99.90;;;;;;5074887;28;20044;-79
2022/09/13 04:09:38;;;;;;;0.10;0.05;;;17.10;99.90;;;;;;5074842;28;20048;-79
2022/09/13 04:12:05;;;;;;;0.10;0.10;;;17.10;99.90;;;;;;5058385;28;20052;-79
2022/09/13 04:14:31;;;;;;;0.00;0.00;;;17.10;99.90;;;;;;5074200;28;20092;-79
2022/09/13 04:16:57;;;;;;;0.00;0.00;;;17.10;99.90;;;;;;5057539;28;20098;-79
2022/09/13 04:19:24;;;;;;;0.00;0.00;;;17.10;99.90;;;;;;5073583;28;20059;-79
2022/09/13 04:21:51;;;;;;;0.28;0.25;;;17.10;99.90;;;;;;5074433;28;20045;-79
2022/09/13 04:24:18;;;;;;;0.00;0.00;;;17.10;99.90;;;;;;5075104;28;20487;-79
2022/09/13 04:26:48;;;;;;;0.20;0.20;;;17.10;99.90;;;;;;5074956;28;20056;-79
2022/09/13 04:29:14;;;;;;;0.10;0.10;;;17.10;99.90;;;;;;5057744;28;20052;-79
2022/09/13 04:31:40;;;;;;;0.10;0.10;;;17.10;99.90;;;;;;5057729;28;20041;-79
2022/09/13 04:34:05;;;;;;;0.13;0.10;;;17.10;99.90;;;;;;5074346;28;20062;-79
2022/09/13 04:36:32;;;;;;;0.00;0.00;;;17.10;99.90;;;;;;5074921;28;20087;-79
2022/09/13 04:38:59;;;;;;;0.05;0.00;;;17.10;99.90;;;;;;5074404;28;20072;-79
2022/09/13 04:41:25;;;;;;;0.00;0.00;;;17.10;99.90;;;;;;5074388;28;20193;-79
2022/09/13 04:43:50;;;;;;;0.00;0.00;;;17.10;99.90;;;;;;5074190;28;20055;-79
2022/09/13 04:46:17;;;;;;;0.20;0.20;;;17.10;99.90;;;;;;5074122;28;20400;-79
2022/09/13 04:48:47;;;;;;;0.00;0.00;;;17.00;99.90;;;;;;5057376;28;20374;-79
2022/09/13 04:51:13;;;;;;;0.00;0.00;;;17.10;99.90;;;;;;5074185;28;20091;-79
2022/09/13 04:53:39;;;;;;;0.10;0.10;;;17.10;99.90;;;;;;5074407;28;20146;-79
2022/09/13 04:56:05;;;;;;;0.05;0.00;;;17.10;99.90;;;;;;5073624;28;20539;-79
2022/09/13 04:58:31;;;;;;;0.05;0.05;;;17.10;99.90;;;;;;5073783;28;20091;-79
2022/09/13 05:01:02;;;;;;;0.00;0.00;;;17.10;99.90;;;;;;5073706;28;20052;-79
2022/09/13 05:03:32;;;;;;;0.00;0.00;;;17.10;99.90;;;;;;5056983;28;20490;-79
2022/09/13 05:06:13;;;;;;;0.08;0.00;;;17.10;99.90;;;;;;5056857;28;20418;-79
2022/09/13 05:08:39;;;;;;;0.20;0.00;;;17.10;99.90;;;;;;5056263;28;20049;-79
2022/09/13 05:11:06;;;;;;;2.63;0.32;;;17.10;99.90;;;;;;5073579;28;20158;-79
2022/09/13 05:13:32;;;;;;;0.00;0.00;;;17.10;99.90;;;;;;5073359;28;20044;-79
2022/09/13 05:16:04;;;;;;;0.10;0.10;;;17.10;99.90;;;;;;5073740;28;20051;-79
2022/09/13 05:18:32;;;;;;;0.00;0.00;;;17.10;99.90;;;;;;5073888;28;20119;-79
2022/09/13 05:20:59;;;;;;;2.67;0.32;;;17.10;99.90;;;;;;5056815;28;20153;-79
2022/09/13 05:23:28;;;;;;;0.00;0.00;;;17.10;99.90;;;;;;5056736;28;20048;-79
2022/09/13 05:26:02;;;;;;;0.00;0.00;;;17.10;99.90;;;;;;5056624;28;20049;-79
2022/09/13 05:28:30;;;;;;;0.00;0.00;;;17.10;99.90;;;;;;5056883;28;20050;-79
2022/09/13 05:31:09;;;;;;;0.10;0.00;;;17.10;99.90;;;;;;5073220;28;20492;-79
2022/09/13 05:33:37;;;;;;;0.00;0.00;;;17.10;99.90;;;;;;5056653;28;20056;-79
2022/09/13 05:36:04;;;;;;;0.00;0.00;;;17.10;99.90;;;;;;5056439;28;20044;-79
2022/09/13 05:38:30;;;;;;;0.08;0.05;;;17.10;99.90;;;;;;5056335;28;20135;-79
2022/09/13 05:40:57;;;;;;;0.00;0.00;;;17.20;99.90;;;;;;5073394;28;20131;-80
2022/09/13 05:43:26;;;;;;;0.00;0.00;;;17.20;99.90;;;;;;5056343;28;20052;-79
2022/09/13 05:46:03;;;;;;;0.10;0.10;;;17.20;99.90;;;;;;5056237;28;20063;-80
2022/09/13 05:48:30;;;;;;;0.10;0.10;;;17.20;99.90;;;;;;5056444;28;20049;-77
2022/09/13 05:50:55;;;;;;;0.10;0.10;;;17.30;99.90;;;;;;5056535;28;20564;-78
2022/09/13 05:53:21;;;;;;;0.98;0.38;;;17.20;99.90;;;;;;5072238;28;20048;-79
2022/09/13 05:55:47;;;;;;;0.00;0.00;;;17.20;99.90;;;;;;5072628;28;20056;-79
2022/09/13 05:58:12;;;;;;;0.00;0.00;;;17.20;99.90;;;;;;5056383;28;20378;-78
2022/09/13 06:00:38;;;;;;;0.10;0.03;;;17.20;99.90;;;;;;5072343;28;20480;-79
2022/09/13 06:03:03;;;;;;;0.00;0.00;;;17.20;99.90;;;;;;5055807;28;20048;-78
2022/09/13 06:05:29;;;;;;;0.00;0.00;;;17.20;99.90;;;;;;5072750;28;20040;-78
2022/09/13 06:07:55;;;;;;;0.38;0.35;;;17.30;99.90;;;;;;5056152;28;20051;-79
2022/09/13 06:10:20;;;;;;;0.47;0.30;;;17.30;99.90;;;;;;5072471;28;20079;-79
2022/09/13 06:12:46;;;;;;;0.20;0.10;;;17.30;99.90;;;;;;5072767;28;20048;-78
2022/09/13 06:15:12;;;;;;;0.00;0.00;;;17.30;99.90;;;;;;5072807;28;20392;-78
2022/09/13 06:17:37;;;;;;;0.25;0.25;;;17.30;99.90;;;;;;5072603;28;20059;-79
2022/09/13 06:20:04;;;;;;;0.00;0.00;;;17.30;99.90;;;;;;5071483;28;20040;-79
2022/09/13 06:22:32;;;;;;;0.00;0.00;;;17.30;99.90;;;;;;5055940;28;20059;-79
2022/09/13 06:24:59;;;;;;;0.00;0.00;;;17.40;99.90;;;;;;5072537;28;20052;-79
2022/09/13 06:27:24;;;;;;;0.00;0.00;;;17.30;99.90;;;;;;5072374;28;20063;-78
2022/09/13 06:29:50;;;;;;;0.10;0.10;;;17.40;99.90;;;;;;5072810;28;20048;-78
2022/09/13 06:32:16;;;;;;;0.00;0.00;;;17.40;99.90;;;;;;5072439;28;20072;-78
2022/09/13 06:34:41;;;;;;;1.63;0.10;;;17.50;99.90;;;;;;5072357;28;20135;-78
2022/09/13 06:37:07;;;;;;;0.00;0.00;;;17.50;99.90;;;;;;5056372;28;20105;-78
2022/09/13 06:39:33;;;;;;;0.00;0.00;;;17.50;99.90;;;;;;5072200;28;20037;-78
2022/09/13 06:41:59;;;;;;;0.13;0.13;;;17.50;99.90;;;;;;5055700;28;20056;-79
2022/09/13 06:44:25;;;;;;;1.00;0.63;;;17.60;99.90;;;;;;5071591;28;20064;-79
2022/09/13 06:46:51;;;;;;;0.00;0.00;;;17.60;99.90;;;;;;5055080;28;20064;-79
2022/09/13 06:49:16;;;;;;;0.00;0.00;;;17.60;99.90;;;;;;5072275;28;20045;-79
2022/09/13 06:51:42;;;;;;;0.00;0.00;;;17.70;99.90;;;;;;5072198;28;20443;-79
2022/09/13 06:54:08;;;;;;;0.47;0.47;;;17.70;99.90;;;;;;5055518;28;20056;-79
2022/09/13 06:56:36;;;;;;;0.00;0.00;;;17.70;99.90;;;;;;5056235;28;20098;-79
2022/09/13 06:59:04;;;;;;;0.00;0.00;;;17.70;99.90;;;;;;5055405;28;20032;-79
2022/09/13 07:01:33;;;;;;;0.08;0.08;;;17.70;99.90;;;;;;5055539;28;20053;-79
2022/09/13 07:04:02;;;;;;;0.00;0.00;;;17.70;99.90;;;;;;5071955;28;20091;-79
2022/09/13 07:06:34;;;;;;;0.00;0.00;;;17.70;99.90;;;;;;5072223;28;20400;-79
2022/09/13 07:09:01;;;;;;;0.00;0.00;;;17.80;99.90;;;;;;5073117;28;20055;-79
2022/09/13 07:11:33;;;;;;;0.00;0.00;;;17.80;99.90;;;;;;5055153;28;20514;-78
2022/09/13 07:14:00;;;;;;;0.00;0.00;;;17.70;99.90;;;;;;5055658;28;20053;-78
2022/09/13 07:16:30;;;;;;;0.00;0.00;;;17.70;99.90;;;;;;5072009;28;20075;-79
2022/09/13 07:18:58;;;;;;;0.00;0.00;;;17.60;99.90;;;;;;5055976;28;20051;-78
2022/09/13 07:21:25;;;;;;;0.00;0.00;;;17.60;99.90;;;;;;5055652;28;20450;-78
2022/09/13 07:23:53;;;;;;;0.00;0.00;;;17.60;99.90;;;;;;5072005;28;20120;-78
2022/09/13 07:26:19;;;;;;;0.00;0.00;;;17.60;99.90;;;;;;5071898;28;20049;-78
2022/09/13 07:28:47;;;;;;;0.00;0.00;;;17.60;99.90;;;;;;5071955;28;20079;-78
2022/09/13 07:31:21;;;;;;;0.00;0.00;;;17.60;99.90;;;;;;5056577;28;20045;-78
2022/09/13 07:33:52;;;;;;;0.00;0.00;;;17.60;99.90;;;;;;5076146;28;20055;-78
2022/09/13 07:36:17;;;;;;;0.00;0.00;;;17.50;99.90;;;;;;5059118;28;20048;-78
2022/09/13 07:38:44;;;;;;;0.00;0.00;;;17.50;99.90;;;;;;5075378;28;20373;-78
2022/09/13 07:41:18;;;;;;;0.00;0.00;;;17.50;99.90;;;;;;5058874;28;20048;-79
2022/09/13 07:43:44;;;;;;;0.00;0.00;;;17.50;99.90;;;;;;5059558;28;20051;-78
2022/09/13 07:46:16;;;;;;;0.00;0.00;;;17.50;99.90;;;;;;5059057;28;20143;-78
2022/09/13 07:48:43;;;;;;;0.00;0.00;;;17.50;99.90;;;;;;5058886;28;20056;-79
2022/09/13 07:51:13;;;;;;;3.30;0.52;;;17.50;99.90;;;;;;5075214;28;20062;-79
2022/09/13 07:53:41;;;;;;;0.00;0.00;;;17.60;99.90;;;;;;5075202;28;20044;-79
2022/09/13 07:56:08;;;;;;;0.00;0.00;;;17.60;99.90;;;;;;5074709;28;20075;-78
2022/09/13 07:58:35;;;;;;;0.17;0.10;;;17.70;99.90;;;;;;5075570;28;20392;-78
2022/09/13 08:01:11;;;;;;;0.00;0.00;;;17.70;99.90;;;;;;5074938;28;20102;-78
2022/09/13 08:03:37;;;;;;;0.00;0.00;;;17.90;99.90;;;;;;5074851;28;20044;-79
2022/09/13 08:06:04;;;;;;;0.00;0.00;;;17.90;99.90;;;;;;5058383;28;20094;-79
2022/09/13 08:08:31;;;;;;;0.00;0.00;;;18.10;99.90;;;;;;5058183;28;20139;-79
2022/09/13 08:10:57;;;;;;;0.00;0.00;;;18.20;99.90;;;;;;5075234;28;20041;-79
2022/09/13 08:13:23;;;;;;;0.00;0.00;;;18.30;99.90;;;;;;5074606;28;20614;-78
2022/09/13 08:15:49;;;;;;;0.00;0.00;;;18.50;99.90;;;;;;5058278;28;20378;-78
2022/09/13 08:18:18;;;;;;;0.00;0.00;;;18.50;99.90;;;;;;5074804;28;20059;-78
2022/09/13 08:20:44;;;;;;;0.00;0.00;;;18.50;99.90;;;;;;5074258;28;20400;-79
2022/09/13 08:23:11;;;;;;;0.00;0.00;;;18.50;99.90;;;;;;5075394;28;20137;-79
2022/09/13 08:25:37;;;;;;;0.00;0.00;;;18.50;99.90;;;;;;5074833;28;20053;-78
2022/09/13 08:28:08;;;;;;;0.00;0.00;;;18.50;99.90;;;;;;5074589;28;20052;-78
2022/09/13 08:30:36;;;;;;;0.00;0.00;;;18.60;99.90;;;;;;5058046;28;20052;-78
2022/09/13 08:33:05;;;;;;;0.00;0.00;;;18.60;99.90;;;;;;5074621;28;20488;-78
2022/09/13 08:35:32;;;;;;;0.00;0.00;;;18.60;99.90;;;;;;5074349;28;20095;-78
2022/09/13 08:37:59;;;;;;;0.00;0.00;;;18.60;99.90;;;;;;5057719;28;20045;-78
2022/09/13 08:40:29;;;;;;;1.25;0.43;;;18.50;99.90;;;;;;5074571;28;20041;-77
2022/09/13 08:42:58;;;;;;;0.00;0.00;;;18.60;99.90;;;;;;5057084;28;20057;-78
2022/09/13 08:45:24;;;;;;;0.00;0.00;;;18.60;99.90;;;;;;5074272;28;20048;-78
2022/09/13 08:47:53;;;;;;;0.00;0.00;;;18.70;99.90;;;;;;5073899;28;20041;-79
2022/09/13 08:50:27;;;;;;;0.10;0.05;;;18.80;99.90;;;;;;5074316;28;20053;-80
2022/09/13 08:53:18;;;;;;;0.00;0.00;;;18.80;99.90;;;;;;5057213;28;20566;-79
2022/09/13 08:56:09;;;;;;;0.00;0.00;;;18.90;99.90;;;;;;5072289;28;20446;-79
2022/09/13 08:59:05;;;;;;;0.00;0.00;;;18.90;99.90;;;;;;5036963;28;20053;-79
2022/09/13 09:02:01;;;;;;;0.00;0.00;;;18.90;99.90;;;;;;5064152;28;20126;-79
2022/09/13 09:04:31;;;;;;;0.00;0.00;;;18.90;99.90;;;;;;5073713;28;20101;-79
2022/09/13 09:07:15;;;;;;;0.00;0.00;;;18.90;99.90;;;;;;5072765;28;20059;-79
2022/09/13 09:10:01;;;;;;;0.00;0.00;;;18.90;99.90;;;;;;5074032;28;20528;-79
2022/09/13 09:12:33;;;;;;;0.00;0.00;;;19.10;99.90;;;;;;5056839;28;20056;-80
2022/09/13 09:15:04;;;;;;;0.85;0.20;;;19.40;99.90;;;;;;5073231;28;20408;-80
2022/09/13 09:17:46;;;;;;;0.00;0.00;;;19.60;99.90;;;;;;5056869;28;20407;-80
2022/09/13 09:20:24;;;;;;;0.00;0.00;;;19.90;99.90;;;;;;5072713;28;20049;-79
2022/09/13 09:22:53;;;;;;;4.95;0.30;;;20.20;99.90;;;;;;5056778;28;20048;-79
2022/09/13 09:25:21;;;;;;;0.47;0.00;;;20.40;99.90;;;;;;5056537;28;20056;-80
2022/09/13 09:27:47;;;;;;;0.10;0.00;;;20.50;99.90;;;;;;5073323;28;20047;-79
2022/09/13 09:30:13;;;;;;;0.10;0.10;;;20.60;99.90;;;;;;5073797;28;20044;-80
2022/09/13 09:33:19;;;;;;;0.00;0.00;;;20.50;99.90;;;;;;5056539;28;20052;-79
2022/09/13 09:36:19;;;;;;;0.10;0.10;;;20.50;99.90;;;;;;4999027;28;20073;-79
2022/09/13 09:38:45;;;;;;;0.85;0.38;;;20.40;99.90;;;;;;4940870;28;20055;-79
2022/09/13 09:41:34;;;;;;;0.03;0.00;;;20.40;99.90;;;;;;4941241;28;20093;-79
2022/09/13 09:44:08;;;;;;;0.00;0.00;;;20.40;99.90;;;;;;4941537;28;20058;-79
2022/09/13 09:46:38;;;;;;;18.20;1.85;;;20.50;99.90;;;;;;4957867;28;20137;-79
2022/09/13 09:52:00;;;;;;;;;;;20.60;99.90;;;;;;4957774;28;20053;-79
2022/09/13 09:54:28;;;;;;;0.00;0.00;;;20.90;99.90;;;;;;4956968;28;19922;-80
2022/09/13 09:56:54;;;;;;;0.10;0.10;;;20.80;99.90;;;;;;4973264;28;20105;-80
2022/09/13 09:59:30;;;;;;;0.00;0.00;;;20.80;99.90;;;;;;4941097;28;20495;-79
2022/09/13 10:01:56;;;;;;;0.00;0.00;;;21.00;99.90;;;;;;4956980;28;20059;-79
2022/09/13 10:04:23;;;;;;;0.00;0.00;;;21.20;99.90;;;;;;4941116;28;20062;-80
2022/09/13 10:07:06;;;;;;;0.00;0.00;;;21.30;99.90;;;;;;4941030;28;20068;-80
2022/09/13 10:09:32;;;;;;;0.00;0.00;;;21.30;99.90;;;;;;4957127;28;20141;-80
2022/09/13 10:11:58;;;;;;;0.10;0.00;;;21.10;99.90;;;;;;5001866;28;20465;-80
2022/09/13 10:14:36;;;;;;;0.00;0.00;;;21.10;99.90;;;;;;5003122;28;20049;-80
2022/09/13 10:17:04;;;;;;;0.00;0.00;;;21.20;99.90;;;;;;5056051;28;20048;-80
2022/09/13 10:19:31;;;;;;;0.00;0.00;;;21.40;99.90;;;;;;5055820;28;20040;-80
2022/09/13 10:22:10;;;;;;;0.00;0.00;;;21.50;99.90;;;;;;5055892;28;20438;-80
2022/09/13 10:24:36;;;;;;;0.00;0.00;;;21.80;99.90;;;;;;5056148;28;20045;-80
2022/09/13 10:27:04;;;;;;;0.00;0.00;;;22.00;99.90;;;;;;5056124;28;20052;-80
2022/09/13 10:29:31;;;;;;;0.10;0.10;;;22.30;99.90;;;;;;5055906;28;20044;-80
2022/09/13 10:32:02;;;;;;;0.00;0.00;;;22.50;99.90;;;;;;5072531;28;20063;-80
2022/09/13 10:34:34;;;;;;;0.00;0.00;;;22.60;99.90;;;;;;5072811;28;20049;-80
2022/09/13 10:37:14;;;;;;;0.00;0.00;;;22.50;99.90;;;;;;5072502;28;20400;-80
2022/09/13 10:39:57;;;;;;;0.00;0.00;;;22.20;99.90;;;;;;5072293;28;20040;-80
2022/09/13 10:42:25;;;;;;;0.00;0.00;;;22.10;99.90;;;;;;5055620;28;20049;-80
2022/09/13 10:44:51;;;;;;;0.00;0.00;;;22.00;99.90;;;;;;5055630;28;20060;-80
2022/09/13 10:47:44;;;;;;;0.00;0.00;;;22.10;99.90;;;;;;5055615;28;20052;-80
2022/09/13 10:50:22;;;;;;;0.00;0.00;;;22.20;99.90;;;;;;5055751;28;20064;-81
2022/09/13 10:52:54;;;;;;;0.00;0.00;;;22.40;99.90;;;;;;5056184;28;20037;-81
2022/09/13 10:55:25;;;;;;;0.00;0.00;;;22.60;99.90;;;;;;5055392;28;20062;-81
2022/09/13 10:58:05;;;;;;;0.17;0.03;;;22.90;99.90;;;;;;5056197;28;20369;-80
2022/09/13 11:00:44;;;;;;;0.00;0.00;;;23.10;99.90;;;;;;5055414;28;20395;-80
2022/09/13 11:03:35;;;;;;;0.00;0.00;;;23.10;99.90;;;;;;5072383;28;20041;-81
2022/09/13 11:06:07;;;;;;;0.00;0.00;;;23.10;99.90;;;;;;5073590;28;20044;-80
2022/09/13 11:08:38;;;;;;;0.00;0.00;;;23.20;99.90;;;;;;5076290;28;20053;-81
2022/09/13 11:11:28;;;;;;;0.00;0.00;;;23.30;99.90;;;;;;5076377;28;20442;-80
2022/09/13 11:14:31;;;;;;;0.00;0.00;;;23.40;99.90;;;;;;5059330;28;20047;-80
2022/09/13 11:17:31;;;;;;;0.00;0.00;;;23.40;99.30;;;;;;5059149;28;20044;-81
2022/09/13 11:20:29;;;;;;;0.00;0.00;;;23.40;99.90;;;;;;5059164;28;20051;-81
2022/09/13 11:22:57;;;;;;;0.00;0.00;;;23.60;99.90;;;;;;5045574;28;20060;-80
2022/09/13 11:25:56;;;;;;;1.25;0.25;;;23.70;99.60;;;;;;5075711;28;20044;-80
2022/09/13 11:28:56;;;;;;;0.00;0.00;;;23.70;98.80;;;;;;5075654;28;20091;-80
2022/09/13 11:32:04;;;;;;;0.00;0.00;;;23.50;99.40;;;;;;5058924;28;20135;-80
2022/09/13 11:34:57;;;;;;;0.00;0.00;;;23.50;99.40;;;;;;5018169;28;20136;-81
2022/09/13 11:38:06;;;;;;;0.00;0.00;;;23.50;98.00;;;;;;5002309;28;20092;-80
2022/09/13 11:40:42;;;;;;;0.00;0.00;;;23.30;99.40;;;;;;4943320;28;20415;-80
2022/09/13 11:43:26;;;;;;;0.00;0.00;;;23.30;98.70;;;;;;4959371;28;20134;-80
2022/09/13 11:46:13;;;;;;;0.00;0.00;;;23.50;99.90;;;;;;4943501;28;20506;-80
2022/09/13 11:49:17;;;;;;;0.00;0.00;;;23.60;99.90;;;;;;4975751;28;20553;-80
2022/09/13 11:52:19;;;;;;;0.00;0.00;;;23.70;99.90;;;;;;4975953;28;20075;-80
2022/09/13 11:54:51;;;;;;;0.00;0.00;;;23.90;99.70;;;;;;4959171;28;20065;-80
2022/09/13 11:57:24;;;;;;;0.00;0.00;;;23.90;95.80;;;;;;4975649;28;20054;-80
2022/09/13 12:00:00;;;;;;;0.00;0.00;;;24.00;98.10;;;;;;4959259;28;20051;-80
2022/09/13 12:02:47;;;;;;;0.00;0.00;;;23.80;98.40;;;;;;4959237;28;20086;-80
2022/09/13 12:05:22;;;;;;;0.00;0.00;;;23.50;96.10;;;;;;4959199;28;20141;-80
2022/09/13 12:07:58;;;;;;;0.00;0.00;;;23.10;96.50;;;;;;4959213;28;20074;-80
2022/09/13 12:10:37;;;;;;;0.65;0.45;;;23.00;97.80;;;;;;4945434;28;20138;-80
2022/09/13 12:13:06;;;;;;;0.75;0.10;;;23.00;99.40;;;;;;5001096;28;20057;-80
2022/09/13 12:15:45;;;;;;;0.00;0.00;;;23.20;98.80;;;;;;4995636;28;20053;-80
2022/09/13 12:18:25;;;;;;;0.00;0.00;;;23.20;98.00;;;;;;5064431;28;20092;-81
2022/09/13 12:21:08;;;;;;;0.00;0.00;;;23.30;98.00;;;;;;5074014;28;20053;-81
2022/09/13 12:23:45;;;;;;;0.00;0.00;;;23.50;98.50;;;;;;5074479;28;20519;-80
2022/09/13 12:26:35;;;;;;;0.00;0.00;;;23.60;96.90;;;;;;5074804;28;20040;-80
2022/09/13 12:29:13;;;;;;;0.05;0.03;;;23.80;97.90;;;;;;5057765;28;20056;-81
2022/09/13 12:31:39;;;;;;;0.00;0.00;;;23.70;97.70;;;;;;5075057;28;20476;-81
2022/09/13 12:34:10;;;;;;;0.00;0.00;;;23.60;96.80;;;;;;5074189;28;20079;-80
2022/09/13 12:36:42;;;;;;;0.00;0.00;;;23.30;96.70;;;;;;5074622;28;20116;-80
2022/09/13 12:39:30;;;;;;;0.00;0.00;;;23.20;97.30;;;;;;5057432;28;20499;-80
2022/09/13 12:42:20;;;;;;;0.00;0.00;;;23.00;96.70;;;;;;5074692;28;20095;-81
2022/09/13 12:45:15;;;;;;;0.00;0.00;;;23.10;95.60;;;;;;5074338;28;20049;-79
2022/09/13 12:48:05;;;;;;;0.00;0.00;;;23.30;96.50;;;;;;5074279;28;20152;-80
2022/09/13 12:50:52;;;;;;;0.00;0.00;;;23.40;96.20;;;;;;5057435;28;20052;-80
2022/09/13 12:53:24;;;;;;;0.00;0.00;;;23.40;94.80;;;;;;5073918;28;20060;-80
2022/09/13 12:56:14;;;;;;;2.38;1.10;;;23.40;95.80;;;;;;5056745;28;20563;-80
2022/09/13 12:59:15;;;;;;;0.00;0.00;;;23.40;95.30;;;;;;5057763;28;20049;-80
2022/09/13 13:01:47;;;;;;;0.00;0.00;;;23.50;94.90;;;;;;5057592;28;20052;-80
2022/09/13 13:04:22;;;;;;;0.00;0.00;;;23.60;95.30;;;;;;5074032;28;20144;-80
2022/09/13 13:07:02;;;;;;;0.00;0.00;;;23.40;93.80;;;;;;5057480;28;20067;-80
2022/09/13 13:09:41;;;;;;;0.00;0.00;;;23.40;94.00;;;;;;5057387;28;20041;-80
2022/09/13 13:12:11;;;;;;;0.00;0.00;;;23.60;96.40;;;;;;5073873;28;20074;-81
2022/09/13 13:14:40;;;;;;;0.00;0.00;;;23.60;94.60;;;;;;5073453;28;20060;-80
2022/09/13 13:17:34;;;;;;;0.00;0.00;;;23.60;95.00;;;;;;5057196;28;20048;-80
2022/09/13 13:19:59;;;;;;;0.73;0.30;;;23.30;93.50;;;;;;5056855;28;20048;-80
2022/09/13 13:22:44;;;;;;;0.00;0.00;;;23.30;93.80;;;;;;5073634;28;20040;-80
2022/09/13 13:25:27;;;;;;;0.00;0.00;;;23.30;95.10;;;;;;5056580;28;20048;-80